Time;durP1;ratioP1;P1;durP2;ratioP2;P2;SDS_P1;SDS_P2;PMS_P1;PMS_P2;Temp;Humidity;BMP_temperature;BMP_pressure;BME280_temperature;BME280_humidity;BME280_pressure;Samples;Min_cycle;Max_cycle;Signal;HPM_P1;HPM_P2
2022/05/07 00:01:09;;;;;;;21.80;12.45;;;13.90;99.90;;;;;;4999677;28;20092;-66
2022/05/07 00:03:35;;;;;;;15.63;11.55;;;13.90;99.90;;;;;;5002689;28;20100;-66
2022/05/07 00:06:01;;;;;;;18.92;10.63;;;13.90;99.90;;;;;;5004656;28;20066;-66
2022/05/07 00:08:27;;;;;;;15.02;11.20;;;13.90;99.90;;;;;;5002540;28;20053;-66
2022/05/07 00:10:53;;;;;;;16.52;10.93;;;13.90;99.90;;;;;;5001432;28;20044;-66
2022/05/07 00:13:19;;;;;;;21.75;11.50;;;13.90;99.90;;;;;;5007994;28;20045;-66
2022/05/07 00:18:01;;;;;;;16.20;11.05;;;13.90;99.90;;;;;;5000336;28;20033;-66
2022/05/07 00:18:31;;;;;;;17.80;10.27;;;13.90;99.90;;;;;;5003224;28;20096;-66
2022/05/07 00:20:57;;;;;;;18.17;11.38;;;14.00;99.90;;;;;;5004663;28;20041;-66
2022/05/07 00:23:23;;;;;;;19.00;12.23;;;14.00;99.90;;;;;;4998516;28;20071;-66
2022/05/07 00:25:49;;;;;;;18.73;14.07;;;14.00;99.90;;;;;;5003377;28;20703;-66
2022/05/07 00:28:17;;;;;;;17.10;12.48;;;13.90;99.90;;;;;;4994434;28;20104;-67
2022/05/07 00:30:44;;;;;;;18.77;12.30;;;13.90;99.90;;;;;;5016459;28;20499;-66
2022/05/07 00:33:10;;;;;;;17.15;11.48;;;13.90;99.90;;;;;;5014557;28;20049;-66
2022/05/07 00:35:35;;;;;;;17.88;11.23;;;13.90;99.90;;;;;;5015531;28;20053;-66
2022/05/07 00:38:01;;;;;;;20.83;12.32;;;13.90;99.90;;;;;;5013512;28;20045;-66
2022/05/07 00:40:27;;;;;;;18.23;12.27;;;13.90;99.90;;;;;;5011015;28;20076;-66
2022/05/07 00:42:53;;;;;;;16.25;10.75;;;14.00;99.90;;;;;;5008674;28;20053;-66
2022/05/07 00:45:19;;;;;;;19.48;10.98;;;13.90;99.90;;;;;;5015378;28;20053;-67
2022/05/07 00:47:46;;;;;;;20.92;12.50;;;13.90;99.90;;;;;;5013907;28;20264;-66
2022/05/07 00:52:58;;;;;;;19.42;13.77;;;14.00;99.90;;;;;;5014782;28;20061;-66
2022/05/07 00:55:25;;;;;;;22.65;12.35;;;14.00;99.90;;;;;;5014001;28;20612;-66
2022/05/07 00:57:51;;;;;;;17.50;10.38;;;14.00;99.90;;;;;;5013372;28;20045;-66
2022/05/07 01:00:17;;;;;;;22.15;13.15;;;14.00;99.90;;;;;;5015446;28;20058;-66
2022/05/07 01:02:43;;;;;;;21.67;14.57;;;14.00;99.90;;;;;;5015319;28;20456;-66
2022/05/07 01:05:10;;;;;;;19.38;13.52;;;14.00;99.90;;;;;;5015164;28;20069;-66
2022/05/07 01:07:36;;;;;;;19.90;13.90;;;13.90;99.90;;;;;;5015655;28;20557;-66
2022/05/07 01:10:03;;;;;;;19.70;13.27;;;13.80;99.90;;;;;;5015014;28;20775;-66
2022/05/07 01:12:30;;;;;;;18.90;13.15;;;13.80;99.90;;;;;;5014230;28;20057;-65
2022/05/07 01:14:58;;;;;;;17.27;11.85;;;13.70;99.90;;;;;;5013480;28;20107;-67
2022/05/07 01:17:24;;;;;;;21.25;13.32;;;13.70;99.90;;;;;;5015019;28;20053;-66
2022/05/07 01:19:54;;;;;;;17.67;12.65;;;13.70;99.90;;;;;;5014043;28;20175;-66
2022/05/07 01:22:22;;;;;;;23.00;14.52;;;13.70;99.90;;;;;;5014782;28;20077;-66
2022/05/07 01:24:47;;;;;;;30.92;15.45;;;13.80;99.90;;;;;;5012707;28;20045;-66
2022/05/07 01:27:13;;;;;;;22.35;13.68;;;13.70;99.90;;;;;;5013027;28;20049;-65
2022/05/07 01:29:39;;;;;;;19.55;9.85;;;13.80;99.90;;;;;;5014539;28;20144;-66
2022/05/07 01:32:05;;;;;;;16.48;10.25;;;13.70;99.90;;;;;;5013230;28;20060;-66
2022/05/07 01:34:31;;;;;;;19.10;13.73;;;13.80;99.90;;;;;;5014411;28;20104;-65
2022/05/07 01:36:58;;;;;;;17.35;11.07;;;13.70;99.90;;;;;;5013711;28;20042;-65
2022/05/07 01:39:24;;;;;;;23.05;11.98;;;13.80;99.90;;;;;;5014236;28;20095;-65
2022/05/07 01:41:50;;;;;;;18.08;11.52;;;13.80;99.90;;;;;;5014175;28;20057;-65
2022/05/07 01:44:16;;;;;;;23.42;13.90;;;13.80;99.90;;;;;;5015755;28;20116;-65
2022/05/07 01:49:27;;;;;;;24.35;13.90;;;13.80;99.90;;;;;;5015284;28;20054;-65
2022/05/07 01:51:52;;;;;;;20.70;13.75;;;13.80;99.90;;;;;;5016552;28;20060;-65
2022/05/07 01:54:18;;;;;;;17.40;13.55;;;13.70;99.90;;;;;;5018542;28;20057;-67
2022/05/07 01:56:44;;;;;;;28.30;15.18;;;13.80;99.90;;;;;;5018667;28;20378;-67
2022/05/07 01:59:10;;;;;;;18.08;13.90;;;13.90;99.90;;;;;;5018415;28;20049;-67
2022/05/07 02:01:37;;;;;;;24.17;15.15;;;13.70;99.90;;;;;;5019917;28;20159;-67
2022/05/07 02:04:03;;;;;;;20.08;13.45;;;13.70;99.90;;;;;;5018638;28;20084;-67
2022/05/07 02:06:29;;;;;;;29.17;14.43;;;13.80;99.90;;;;;;5018439;28;20061;-67
2022/05/07 02:08:55;;;;;;;21.65;13.70;;;13.70;99.90;;;;;;5020005;28;20095;-68
2022/05/07 02:11:23;;;;;;;21.65;13.52;;;13.70;99.90;;;;;;5018589;28;20053;-69
2022/05/07 02:13:48;;;;;;;24.17;15.93;;;13.80;99.90;;;;;;5020507;28;20051;-68
2022/05/07 02:16:14;;;;;;;20.40;14.07;;;13.80;99.90;;;;;;5019555;28;20041;-69
2022/05/07 02:18:40;;;;;;;21.77;14.25;;;13.70;99.90;;;;;;5021008;28;20052;-68
2022/05/07 02:21:05;;;;;;;19.35;13.43;;;13.70;99.90;;;;;;5004188;28;20058;-67
2022/05/07 02:23:31;;;;;;;19.95;14.13;;;13.70;99.90;;;;;;5001712;28;20046;-68
2022/05/07 02:25:58;;;;;;;16.10;12.98;;;13.70;99.90;;;;;;5004606;28;20053;-68
2022/05/07 02:28:24;;;;;;;20.65;14.18;;;13.80;99.90;;;;;;5011135;28;20076;-68
2022/05/07 02:30:49;;;;;;;15.90;12.35;;;13.80;99.90;;;;;;5015989;28;20053;-67
2022/05/07 02:33:18;;;;;;;21.80;12.73;;;13.80;99.90;;;;;;5019975;28;20041;-68
2022/05/07 02:35:44;;;;;;;23.27;14.55;;;13.80;99.90;;;;;;5018241;28;20096;-68
2022/05/07 02:38:09;;;;;;;23.45;14.93;;;13.80;99.90;;;;;;5019133;28;20147;-68
2022/05/07 02:42:33;;;;;;;20.48;13.32;;;13.80;99.90;;;;;;5018065;28;20053;-68
2022/05/07 02:43:21;;;;;;;25.85;15.80;;;13.80;99.90;;;;;;5019071;28;20041;-67
2022/05/07 02:45:48;;;;;;;24.33;15.02;;;13.80;99.90;;;;;;5019000;28;20053;-68
2022/05/07 02:48:14;;;;;;;20.80;13.65;;;13.80;99.90;;;;;;5019809;28;20056;-68
2022/05/07 02:50:41;;;;;;;25.50;15.10;;;13.80;99.90;;;;;;5017208;28;20049;-67
2022/05/07 02:53:07;;;;;;;22.08;13.65;;;13.80;99.90;;;;;;5018213;28;20061;-66
2022/05/07 02:55:33;;;;;;;23.05;13.02;;;13.80;99.90;;;;;;5018522;28;20064;-66
2022/05/07 02:57:59;;;;;;;19.77;14.13;;;13.80;99.90;;;;;;5019676;28;20049;-65
2022/05/07 03:00:24;;;;;;;24.75;13.90;;;13.80;99.90;;;;;;5019578;28;20049;-66
2022/05/07 03:02:50;;;;;;;20.50;14.00;;;13.80;99.90;;;;;;5019110;28;20049;-66
2022/05/07 03:05:16;;;;;;;22.02;13.63;;;13.80;99.90;;;;;;5018215;28;20091;-66
2022/05/07 03:07:42;;;;;;;27.33;15.30;;;13.80;99.90;;;;;;5018650;28;20045;-66
2022/05/07 03:10:08;;;;;;;20.17;13.20;;;13.80;99.90;;;;;;5018583;28;20558;-66
2022/05/07 03:12:34;;;;;;;20.60;13.82;;;13.70;99.90;;;;;;5017986;28;20057;-66
2022/05/07 03:15:00;;;;;;;21.08;12.98;;;13.70;99.90;;;;;;5020188;28;20091;-67
2022/05/07 03:17:26;;;;;;;18.42;12.20;;;13.70;99.90;;;;;;5019345;28;20136;-66
2022/05/07 03:19:52;;;;;;;14.05;9.02;;;13.70;99.90;;;;;;5016444;28;20045;-66
2022/05/07 03:22:18;;;;;;;21.45;15.05;;;13.70;99.90;;;;;;5017924;28;20051;-66
2022/05/07 03:24:44;;;;;;;19.65;14.35;;;13.70;99.90;;;;;;5019236;28;20034;-66
2022/05/07 03:27:11;;;;;;;21.35;14.38;;;13.70;99.90;;;;;;5019934;28;20049;-67
2022/05/07 03:29:37;;;;;;;19.60;12.90;;;13.60;99.90;;;;;;5019802;28;20056;-66
2022/05/07 03:32:02;;;;;;;22.73;14.25;;;13.60;99.90;;;;;;5017704;28;20045;-66
2022/05/07 03:34:28;;;;;;;16.73;12.57;;;13.60;99.90;;;;;;5017584;28;20053;-66
2022/05/07 03:36:54;;;;;;;19.77;14.90;;;13.60;99.90;;;;;;5016415;28;20049;-66
2022/05/07 03:39:19;;;;;;;15.63;10.98;;;13.50;99.90;;;;;;5016738;28;20073;-66
2022/05/07 03:41:45;;;;;;;20.42;12.57;;;13.50;99.90;;;;;;5015961;28;20885;-66
2022/05/07 03:44:10;;;;;;;23.08;12.63;;;13.50;99.90;;;;;;5020331;28;20050;-66
2022/05/07 03:46:36;;;;;;;22.38;13.30;;;13.40;99.90;;;;;;5017315;28;20059;-66
2022/05/07 03:49:05;;;;;;;15.55;10.32;;;13.50;99.90;;;;;;5018781;28;20542;-66
2022/05/07 03:53:29;;;;;;;17.83;11.55;;;13.40;99.90;;;;;;5022614;28;20134;-67
2022/05/07 03:54:20;;;;;;;14.80;9.75;;;13.40;99.90;;;;;;5020837;28;20057;-66
2022/05/07 03:56:45;;;;;;;19.80;13.35;;;13.40;99.90;;;;;;5016440;28;20050;-66
2022/05/07 03:59:11;;;;;;;20.10;12.57;;;13.30;99.90;;;;;;5015851;28;20122;-66
2022/05/07 04:01:37;;;;;;;13.73;11.23;;;13.30;99.90;;;;;;5015340;28;20068;-66
2022/05/07 04:04:02;;;;;;;21.33;12.70;;;13.30;99.90;;;;;;5017269;28;20056;-66
2022/05/07 04:06:28;;;;;;;14.32;10.38;;;13.30;99.90;;;;;;5015343;28;20077;-66
2022/05/07 04:08:54;;;;;;;17.23;10.65;;;13.30;99.90;;;;;;5015547;28;20079;-66
2022/05/07 04:11:19;;;;;;;19.70;12.90;;;13.40;99.90;;;;;;5018161;28;20041;-66
2022/05/07 04:13:45;;;;;;;16.50;11.98;;;13.40;99.90;;;;;;5016560;28;20127;-66
2022/05/07 04:16:10;;;;;;;18.40;12.68;;;13.30;99.90;;;;;;5015841;28;20049;-66
2022/05/07 04:18:36;;;;;;;19.70;11.90;;;13.30;99.90;;;;;;5017259;28;20192;-66
2022/05/07 04:21:02;;;;;;;20.15;12.90;;;13.40;99.90;;;;;;5015626;28;20041;-66
2022/05/07 04:23:27;;;;;;;17.75;11.23;;;13.40;99.90;;;;;;5016697;28;20755;-67
2022/05/07 04:25:54;;;;;;;20.15;12.40;;;13.40;99.90;;;;;;5017427;28;20057;-66
2022/05/07 04:28:20;;;;;;;20.98;13.45;;;13.40;99.90;;;;;;5017225;28;20041;-66
2022/05/07 04:30:45;;;;;;;15.77;11.82;;;13.40;99.90;;;;;;5015385;28;20084;-66
2022/05/07 04:33:11;;;;;;;17.02;12.45;;;13.40;99.90;;;;;;5016923;28;20084;-66
2022/05/07 04:35:36;;;;;;;16.88;11.50;;;13.50;99.90;;;;;;5014204;28;20096;-66
2022/05/07 04:38:02;;;;;;;20.08;12.93;;;13.40;99.90;;;;;;5016795;28;20564;-66
2022/05/07 04:40:28;;;;;;;19.70;12.75;;;13.40;99.90;;;;;;5015139;28;20057;-67
2022/05/07 04:42:53;;;;;;;18.27;12.07;;;13.50;99.90;;;;;;5015146;28;20079;-66
2022/05/07 04:45:19;;;;;;;15.73;12.13;;;13.50;99.90;;;;;;5016455;28;20583;-66
2022/05/07 04:47:45;;;;;;;20.48;15.15;;;13.50;99.90;;;;;;5014772;28;20038;-66
2022/05/07 04:50:12;;;;;;;19.90;11.40;;;13.50;99.90;;;;;;5016074;28;20143;-66
2022/05/07 04:52:38;;;;;;;18.35;13.20;;;13.60;99.90;;;;;;5015484;28;20115;-68
2022/05/07 04:55:04;;;;;;;16.73;11.80;;;13.60;99.90;;;;;;5015877;28;20048;-65
2022/05/07 04:57:30;;;;;;;17.75;12.75;;;13.70;99.90;;;;;;5014651;28;20049;-66
2022/05/07 04:59:56;;;;;;;19.52;13.27;;;13.70;99.90;;;;;;5015954;28;20052;-66
2022/05/07 05:02:22;;;;;;;16.92;12.13;;;13.70;99.90;;;;;;5017028;28;20061;-65
2022/05/07 05:04:47;;;;;;;21.17;13.02;;;13.80;99.90;;;;;;5016337;28;20060;-66
2022/05/07 05:07:13;;;;;;;18.08;12.52;;;13.70;99.90;;;;;;5015148;28;20057;-66
2022/05/07 05:09:38;;;;;;;16.40;11.63;;;13.80;99.90;;;;;;5016563;28;20093;-65
2022/05/07 05:12:04;;;;;;;17.92;13.13;;;13.80;99.90;;;;;;5015806;28;20049;-66
2022/05/07 05:17:14;;;;;;;18.08;13.63;;;13.70;99.90;;;;;;5014809;28;20042;-65
2022/05/07 05:19:39;;;;;;;14.77;11.82;;;13.80;99.90;;;;;;5016133;28;20053;-66
2022/05/07 05:22:05;;;;;;;17.95;11.88;;;13.80;99.90;;;;;;5014761;28;20131;-66
2022/05/07 05:24:31;;;;;;;21.52;11.75;;;13.80;99.90;;;;;;5015173;28;20041;-66
2022/05/07 05:26:56;;;;;;;20.17;14.10;;;13.80;99.90;;;;;;5015917;28;20064;-65
2022/05/07 05:29:23;;;;;;;18.83;12.70;;;14.20;99.90;;;;;;5019770;28;20049;-65
2022/05/07 05:31:49;;;;;;;18.63;13.80;;;13.90;99.90;;;;;;5018294;28;20061;-66
2022/05/07 05:34:14;;;;;;;18.05;12.43;;;13.90;99.90;;;;;;5019963;28;20037;-66
2022/05/07 05:36:40;;;;;;;15.95;11.75;;;13.90;99.90;;;;;;5019085;28;20041;-66
2022/05/07 05:39:07;;;;;;;14.77;10.55;;;14.10;99.90;;;;;;5019884;28;20033;-67
2022/05/07 05:41:33;;;;;;;16.60;13.07;;;14.10;99.90;;;;;;5018666;28;20123;-67
2022/05/07 05:43:59;;;;;;;18.13;13.48;;;14.20;99.90;;;;;;5015704;28;20072;-67
2022/05/07 05:46:25;;;;;;;19.40;13.70;;;14.20;99.90;;;;;;5001497;28;20642;-67
2022/05/07 05:48:50;;;;;;;16.30;12.75;;;14.30;99.90;;;;;;5000666;28;20030;-67
2022/05/07 05:51:16;;;;;;;18.70;13.75;;;14.30;99.90;;;;;;5007758;28;20053;-67
2022/05/07 05:53:41;;;;;;;17.17;12.82;;;14.40;99.90;;;;;;5002087;28;20038;-67
2022/05/07 05:56:07;;;;;;;20.20;13.05;;;14.40;99.90;;;;;;4997222;28;20118;-67
2022/05/07 05:58:35;;;;;;;19.52;13.57;;;14.50;99.90;;;;;;4995699;28;20048;-67
2022/05/07 06:01:02;;;;;;;14.63;10.98;;;14.60;99.90;;;;;;4997153;28;20081;-67
2022/05/07 06:03:29;;;;;;;23.63;13.95;;;14.60;99.90;;;;;;4997780;28;20046;-67
2022/05/07 06:05:54;;;;;;;17.30;12.30;;;14.70;99.90;;;;;;4998991;28;20708;-67
2022/05/07 06:08:20;;;;;;;20.92;12.23;;;14.80;99.90;;;;;;5007151;28;20050;-67
2022/05/07 06:10:46;;;;;;;18.00;13.40;;;14.90;99.90;;;;;;5009074;28;20056;-67
2022/05/07 06:13:11;;;;;;;19.55;12.98;;;14.90;99.90;;;;;;5007053;28;20057;-67
2022/05/07 06:15:38;;;;;;;15.65;10.25;;;15.00;99.90;;;;;;5013972;28;20053;-67
2022/05/07 06:18:03;;;;;;;14.73;12.23;;;15.00;99.90;;;;;;5016564;28;20042;-68
2022/05/07 06:20:29;;;;;;;15.90;11.23;;;15.10;99.90;;;;;;5015380;28;20504;-67
2022/05/07 06:23:01;;;;;;;16.10;11.48;;;15.20;99.90;;;;;;5014539;28;20108;-67
2022/05/07 06:28:11;;;;;;;13.82;10.40;;;15.30;99.90;;;;;;5001911;28;20148;-67
2022/05/07 06:30:36;;;;;;;16.02;12.82;;;15.30;99.90;;;;;;5011409;28;20045;-67
2022/05/07 06:33:03;;;;;;;17.25;12.00;;;15.50;99.90;;;;;;5018241;28;20049;-68
2022/05/07 06:35:30;;;;;;;19.58;11.23;;;15.50;99.90;;;;;;5008390;28;20050;-68
2022/05/07 06:37:55;;;;;;;16.88;11.27;;;15.70;99.90;;;;;;5010475;28;20087;-67
2022/05/07 06:40:21;;;;;;;16.90;12.15;;;15.80;99.90;;;;;;5015441;28;20287;-67
2022/05/07 06:42:47;;;;;;;17.15;11.30;;;15.80;99.90;;;;;;5015381;28;20050;-67
2022/05/07 06:45:13;;;;;;;16.98;12.85;;;15.90;99.90;;;;;;5015784;28;20150;-67
2022/05/07 06:47:38;;;;;;;17.63;12.55;;;15.90;99.90;;;;;;5015800;28;20160;-67
2022/05/07 06:50:04;;;;;;;17.70;11.70;;;15.90;99.90;;;;;;5007436;28;20088;-67
2022/05/07 06:52:31;;;;;;;14.27;10.82;;;15.90;99.90;;;;;;5014504;28;20081;-67
2022/05/07 06:54:57;;;;;;;15.05;11.45;;;16.50;99.90;;;;;;5002049;28;20493;-67
2022/05/07 06:57:25;;;;;;;17.55;11.60;;;15.90;99.90;;;;;;4992871;28;20053;-67
2022/05/07 06:59:51;;;;;;;14.25;11.10;;;16.10;99.90;;;;;;4993792;28;20042;-67
2022/05/07 07:02:16;;;;;;;17.98;12.70;;;16.40;99.90;;;;;;4996154;28;20048;-67
2022/05/07 07:04:42;;;;;;;17.35;11.40;;;16.80;99.90;;;;;;5000692;28;20081;-67
2022/05/07 07:07:08;;;;;;;17.05;12.15;;;17.30;99.90;;;;;;4994431;28;20164;-67
2022/05/07 07:09:34;;;;;;;13.82;10.90;;;18.00;99.90;;;;;;5002365;28;20540;-67
2022/05/07 07:12:00;;;;;;;16.45;10.43;;;18.30;99.90;;;;;;5001591;28;20041;-67
2022/05/07 07:14:25;;;;;;;15.98;12.27;;;18.60;99.90;;;;;;5001616;28;20791;-66
2022/05/07 07:16:51;;;;;;;17.67;11.40;;;18.80;99.90;;;;;;5003394;28;20061;-67
2022/05/07 07:19:16;;;;;;;17.17;11.60;;;18.90;99.90;;;;;;4995073;28;20064;-67
2022/05/07 07:21:43;;;;;;;12.63;10.18;;;19.00;99.90;;;;;;5000703;28;20604;-67
2022/05/07 07:24:08;;;;;;;16.98;12.68;;;19.20;99.90;;;;;;5013352;28;20104;-67
2022/05/07 07:26:34;;;;;;;16.50;11.30;;;19.00;99.90;;;;;;5013142;28;20973;-67
2022/05/07 07:28:59;;;;;;;17.65;11.98;;;19.20;99.90;;;;;;5014861;28;20052;-67
2022/05/07 07:31:25;;;;;;;15.77;10.63;;;19.50;99.90;;;;;;5012217;28;20049;-67
2022/05/07 07:33:50;;;;;;;16.13;10.93;;;19.70;99.90;;;;;;5014212;28;20059;-67
2022/05/07 07:36:16;;;;;;;14.27;10.10;;;20.00;99.90;;;;;;5013793;28;20049;-67
2022/05/07 07:38:42;;;;;;;15.75;9.77;;;20.20;99.90;;;;;;5011835;28;20055;-67
2022/05/07 07:41:07;;;;;;;16.48;11.55;;;20.30;99.90;;;;;;5006789;28;20046;-68
2022/05/07 07:43:33;;;;;;;14.32;9.88;;;20.20;99.90;;;;;;5000046;28;20045;-68
2022/05/07 07:48:44;;;;;;;15.13;11.15;;;19.80;99.90;;;;;;5001424;28;20080;-67
2022/05/07 07:51:10;;;;;;;13.23;10.55;;;19.60;99.90;;;;;;5004012;28;20049;-67
2022/05/07 07:53:37;;;;;;;14.93;10.85;;;19.40;99.90;;;;;;4995728;28;20120;-67
2022/05/07 07:56:03;;;;;;;16.20;11.07;;;19.30;99.90;;;;;;5001981;28;20052;-67
2022/05/07 07:58:29;;;;;;;12.68;11.05;;;19.10;99.90;;;;;;4999565;28;20724;-67
2022/05/07 08:00:55;;;;;;;11.40;9.55;;;18.90;99.90;;;;;;5000412;28;20139;-67
2022/05/07 08:03:21;;;;;;;17.42;11.55;;;18.80;99.90;;;;;;5000294;28;20137;-67
2022/05/07 08:05:50;;;;;;;14.52;11.23;;;18.60;99.90;;;;;;4996131;28;20046;-67
2022/05/07 08:13:46;;;;;;;17.63;13.15;;;18.70;99.90;;;;;;5003345;28;20057;-67
2022/05/07 08:16:13;;;;;;;16.13;12.18;;;18.40;99.90;;;;;;4997621;28;20038;-67
2022/05/07 08:18:41;;;;;;;17.75;12.07;;;18.50;99.90;;;;;;5004293;28;20539;-67
2022/05/07 08:21:08;;;;;;;20.23;13.68;;;18.60;99.90;;;;;;5003470;28;20054;-68
2022/05/07 08:23:34;;;;;;;18.92;12.82;;;18.50;99.90;;;;;;5002170;28;20078;-67
2022/05/07 08:26:02;;;;;;;15.90;12.88;;;18.40;99.90;;;;;;5002223;28;20713;-67
2022/05/07 08:28:28;;;;;;;16.65;12.50;;;18.30;99.90;;;;;;5000331;28;20077;-64
2022/05/07 08:30:53;;;;;;;15.95;11.82;;;18.40;99.90;;;;;;4999773;28;20122;-67
2022/05/07 08:33:20;;;;;;;16.90;12.80;;;18.40;99.90;;;;;;4996097;28;20655;-67
2022/05/07 08:35:45;;;;;;;18.92;12.93;;;18.40;99.90;;;;;;5001916;28;20315;-67
2022/05/07 08:38:11;;;;;;;20.40;13.25;;;18.40;99.90;;;;;;4993435;28;20762;-67
2022/05/07 08:40:40;;;;;;;17.85;13.18;;;18.40;99.90;;;;;;4996543;28;20060;-67
2022/05/07 08:43:06;;;;;;;15.70;12.13;;;18.30;99.90;;;;;;4994825;28;20060;-67
2022/05/07 08:45:32;;;;;;;19.05;13.05;;;18.40;99.90;;;;;;4997082;28;20049;-67
2022/05/07 08:47:59;;;;;;;15.50;11.55;;;18.30;99.90;;;;;;4995839;28;20054;-67
2022/05/07 08:50:26;;;;;;;20.20;12.50;;;18.40;99.90;;;;;;4996220;28;20176;-67
2022/05/07 08:52:52;;;;;;;20.73;13.15;;;18.40;99.90;;;;;;4995455;28;20069;-67
2022/05/07 08:55:19;;;;;;;15.52;10.55;;;18.20;99.90;;;;;;4996342;28;20050;-67
2022/05/07 08:57:47;;;;;;;18.63;12.52;;;18.20;99.90;;;;;;4996930;28;20092;-67
2022/05/07 09:00:14;;;;;;;15.80;12.45;;;18.00;99.90;;;;;;4995724;28;20149;-67
2022/05/07 09:02:45;;;;;;;19.23;12.65;;;18.00;99.90;;;;;;5000324;28;20444;-67
2022/05/07 09:05:15;;;;;;;18.42;13.32;;;17.90;99.90;;;;;;4997463;28;20049;-67
2022/05/07 09:07:54;;;;;;;20.02;14.38;;;18.00;99.90;;;;;;4999707;28;20046;-67
2022/05/07 09:10:20;;;;;;;21.33;13.80;;;17.90;99.90;;;;;;5007827;28;20124;-67
2022/05/07 09:12:46;;;;;;;18.58;14.40;;;17.90;99.90;;;;;;5015895;28;20095;-67
2022/05/07 09:15:11;;;;;;;16.70;13.32;;;17.70;99.90;;;;;;5013253;28;20702;-67
2022/05/07 09:17:37;;;;;;;14.50;11.65;;;17.50;99.90;;;;;;5017692;28;20186;-67
2022/05/07 09:20:31;;;;;;;17.08;13.20;;;17.60;99.90;;;;;;5017859;28;20073;-67
2022/05/07 09:22:57;;;;;;;18.00;13.02;;;17.70;99.90;;;;;;5016523;28;20065;-67
2022/05/07 09:25:27;;;;;;;18.75;12.27;;;17.80;99.90;;;;;;5012135;28;20538;-67
2022/05/07 09:27:56;;;;;;;14.38;12.27;;;18.00;99.90;;;;;;4999537;28;20402;-67
2022/05/07 09:30:30;;;;;;;15.90;10.80;;;18.10;99.90;;;;;;5015817;28;20089;-67
2022/05/07 09:32:56;;;;;;;18.77;13.88;;;18.20;99.80;;;;;;5017320;28;20880;-67
2022/05/07 09:38:13;;;;;;;16.40;11.20;;;17.90;98.90;;;;;;5015958;28;20057;-67
2022/05/07 09:40:41;;;;;;;15.73;11.10;;;17.90;99.30;;;;;;5017806;28;20049;-67
2022/05/07 09:43:11;;;;;;;15.98;11.48;;;18.00;99.30;;;;;;5017952;28;20115;-67
2022/05/07 09:45:39;;;;;;;14.93;11.10;;;18.10;98.90;;;;;;5017781;28;20057;-67
2022/05/07 09:48:06;;;;;;;15.27;12.38;;;18.10;99.30;;;;;;5016843;28;20144;-67
2022/05/07 09:58:48;;;;;;;15.15;10.45;;;18.20;98.20;;;;;;5015578;28;20156;-67
2022/05/07 10:01:39;;;;;;;12.35;11.00;;;18.40;99.50;;;;;;5014507;28;20049;-67
2022/05/07 10:04:43;;;;;;;17.38;10.05;;;18.30;98.60;;;;;;5014396;28;20048;-67
2022/05/07 10:07:31;;;;;;;17.17;13.18;;;18.60;98.10;;;;;;5015402;28;20065;-66
2022/05/07 10:10:17;;;;;;;19.55;11.65;;;18.80;98.30;;;;;;5015548;28;20149;-66
2022/05/07 10:12:47;;;;;;;20.80;13.55;;;19.00;98.30;;;;;;5014670;28;20111;-67
2022/05/07 10:15:19;;;;;;;20.33;13.90;;;19.00;98.40;;;;;;5002366;28;20050;-66
2022/05/07 10:17:45;;;;;;;17.65;13.85;;;19.10;98.20;;;;;;4993846;28;20042;-67
2022/05/07 10:20:12;;;;;;;24.60;16.58;;;19.10;98.70;;;;;;5000611;28;20151;-67
2022/05/07 10:22:37;;;;;;;23.27;16.17;;;18.90;99.00;;;;;;4996886;28;20049;-67
2022/05/07 10:25:09;;;;;;;23.50;16.33;;;18.70;99.60;;;;;;4997713;28;20046;-67
2022/05/07 10:27:42;;;;;;;28.20;18.20;;;18.60;99.90;;;;;;5007048;28;20041;-67
2022/05/07 10:30:08;;;;;;;26.88;17.73;;;18.60;99.90;;;;;;5010242;28;20057;-66
2022/05/07 10:32:59;;;;;;;28.60;19.35;;;18.50;99.90;;;;;;5007104;28;20049;-66
2022/05/07 10:35:51;;;;;;;27.95;18.67;;;18.60;99.90;;;;;;5006136;28;20199;-66
2022/05/07 10:38:23;;;;;;;29.17;18.98;;;18.50;99.90;;;;;;4999305;28;20077;-66
2022/05/07 10:40:59;;;;;;;27.20;18.85;;;18.50;99.90;;;;;;4995604;28;20062;-66
2022/05/07 10:43:24;;;;;;;28.50;17.70;;;18.60;99.90;;;;;;5008855;28;20049;-66
2022/05/07 10:45:54;;;;;;;26.95;18.73;;;18.50;99.90;;;;;;5015526;28;20091;-66
2022/05/07 10:48:20;;;;;;;28.30;19.50;;;18.10;99.90;;;;;;5005226;28;20141;-67
2022/05/07 10:50:54;;;;;;;31.27;19.00;;;18.10;99.90;;;;;;5001324;28;20152;-66
2022/05/07 10:53:21;;;;;;;26.05;19.85;;;18.00;99.90;;;;;;5006382;28;20033;-66
2022/05/07 10:55:50;;;;;;;29.15;18.85;;;17.90;99.90;;;;;;4997565;28;20048;-66
2022/05/07 10:58:15;;;;;;;29.85;17.88;;;17.90;99.90;;;;;;4996009;28;20108;-67
2022/05/07 11:00:41;;;;;;;26.58;17.92;;;18.10;99.90;;;;;;4999252;28;20528;-67
2022/05/07 11:03:10;;;;;;;26.55;17.85;;;18.40;99.90;;;;;;5013149;28;20042;-67
2022/05/07 11:05:36;;;;;;;23.95;15.88;;;18.60;99.90;;;;;;5011806;28;20140;-67
2022/05/07 11:08:02;;;;;;;23.42;16.88;;;18.90;99.90;;;;;;5014405;28;20049;-67
2022/05/07 11:10:29;;;;;;;30.00;18.75;;;19.10;99.90;;;;;;5013995;28;20056;-67
2022/05/07 11:13:08;;;;;;;24.67;17.80;;;19.20;99.90;;;;;;5012857;28;20045;-67
2022/05/07 11:15:34;;;;;;;29.33;18.17;;;19.00;99.90;;;;;;5012357;28;20042;-67
2022/05/07 11:17:59;;;;;;;25.92;17.08;;;19.10;99.90;;;;;;5014220;28;20037;-67
2022/05/07 11:20:32;;;;;;;25.05;16.88;;;19.40;99.90;;;;;;5013950;28;20502;-67
2022/05/07 11:23:03;;;;;;;30.40;17.23;;;19.20;99.00;;;;;;5013802;28;20244;-68
2022/05/07 11:25:29;;;;;;;22.45;16.40;;;19.20;99.60;;;;;;5014239;28;20116;-67
2022/05/07 11:27:57;;;;;;;23.45;15.65;;;19.20;99.90;;;;;;5013145;28;20049;-67
2022/05/07 11:30:23;;;;;;;24.70;14.48;;;19.10;98.20;;;;;;5012797;28;20123;-67
2022/05/07 11:32:48;;;;;;;23.00;15.23;;;19.00;99.10;;;;;;5010733;28;20045;-67
2022/05/07 11:35:14;;;;;;;22.85;15.60;;;18.90;99.80;;;;;;5005140;28;20053;-67
2022/05/07 11:37:43;;;;;;;24.55;16.60;;;18.70;99.90;;;;;;5011374;28;20054;-67
2022/05/07 11:40:11;;;;;;;22.50;16.48;;;18.70;99.90;;;;;;5010087;28;20045;-68
2022/05/07 11:42:47;;;;;;;22.08;14.63;;;18.70;99.90;;;;;;4998220;28;20049;-67
2022/05/07 11:45:26;;;;;;;24.45;16.05;;;18.70;99.90;;;;;;4995626;28;20536;-67
2022/05/07 11:47:56;;;;;;;22.05;14.98;;;18.50;99.70;;;;;;4996716;28;20143;-67
2022/05/07 11:50:25;;;;;;;25.73;17.60;;;18.70;99.90;;;;;;4996124;28;20788;-67
2022/05/07 11:52:52;;;;;;;19.70;16.83;;;18.40;99.90;;;;;;5000766;28;20086;-67
2022/05/07 11:55:24;;;;;;;24.55;15.60;;;18.20;99.90;;;;;;5000755;28;20122;-67
2022/05/07 11:57:50;;;;;;;23.67;14.30;;;18.20;99.90;;;;;;5002453;28;20049;-67
2022/05/07 12:00:21;;;;;;;25.75;18.45;;;18.10;99.90;;;;;;4994336;28;20307;-67
2022/05/07 12:02:54;;;;;;;27.38;17.00;;;18.00;99.90;;;;;;4998032;28;20053;-67
2022/05/07 12:05:21;;;;;;;22.02;14.45;;;17.80;99.90;;;;;;4997793;28;20434;-67
2022/05/07 12:07:48;;;;;;;20.00;13.88;;;17.90;99.90;;;;;;4998642;28;20289;-67
2022/05/07 12:10:18;;;;;;;22.63;14.10;;;18.00;99.90;;;;;;5004833;28;20049;-67
2022/05/07 12:12:44;;;;;;;19.60;12.50;;;18.10;99.90;;;;;;5003859;28;20588;-67
2022/05/07 12:15:10;;;;;;;16.23;11.77;;;18.10;99.90;;;;;;5002928;28;20049;-67
2022/05/07 12:20:22;;;;;;;17.35;10.57;;;18.00;99.90;;;;;;5002284;28;20141;-67
2022/05/07 12:31:02;;;;;;;20.92;11.15;;;17.60;99.90;;;;;;5001053;28;20049;-66
2022/05/07 12:33:29;;;;;;;16.10;10.82;;;17.60;99.90;;;;;;4994821;28;20050;-67
2022/05/07 12:35:54;;;;;;;19.58;11.60;;;17.60;99.90;;;;;;4995019;28;20037;-67
2022/05/07 12:38:20;;;;;;;22.63;14.10;;;17.60;99.90;;;;;;5002182;28;20049;-66
2022/05/07 12:40:46;;;;;;;16.42;11.48;;;17.70;99.90;;;;;;4999180;28;20818;-66
2022/05/07 12:43:11;;;;;;;16.70;10.43;;;17.80;99.90;;;;;;4993041;28;20061;-67
2022/05/07 12:45:37;;;;;;;15.63;9.30;;;18.20;99.90;;;;;;4998155;28;20087;-66
2022/05/07 12:48:02;;;;;;;11.25;8.00;;;18.30;99.90;;;;;;4993923;28;20041;-67
2022/05/07 12:50:28;;;;;;;9.23;7.03;;;18.00;99.90;;;;;;4995347;28;20086;-66
2022/05/07 12:52:54;;;;;;;12.63;7.57;;;17.80;99.90;;;;;;4999194;28;20447;-65
2022/05/07 12:55:20;;;;;;;12.00;7.80;;;17.60;99.90;;;;;;5000979;28;20068;-65
2022/05/07 12:57:47;;;;;;;15.32;7.90;;;17.60;99.90;;;;;;4998336;28;20120;-66
2022/05/07 13:00:13;;;;;;;12.63;7.95;;;17.40;99.90;;;;;;5000311;28;20041;-66
2022/05/07 13:02:39;;;;;;;10.38;6.57;;;17.50;99.90;;;;;;5000384;28;20091;-66
2022/05/07 13:05:06;;;;;;;10.60;6.50;;;17.60;99.90;;;;;;4999233;28;20033;-67
2022/05/07 13:07:31;;;;;;;12.43;6.35;;;17.70;99.90;;;;;;4998456;28;20558;-66
2022/05/07 13:09:57;;;;;;;12.73;6.82;;;17.70;99.90;;;;;;4994874;28;20042;-65